Hedwig Village, Texas
Current Conditions -  °F | °C
As of 4:15 PM on Sunday 21 Dec 2014 (Local Time) from KMCJ Reporting Station
Overcast Overcast  
Wind Chill: 63°   Ceiling: 2600
Heat Index: 63°   Visibility: NA
Dew Point: 50°   Wind: 0mph
Humidity: 63%   Direction: NA
Pressure: 29.93"   Gusts: NA
Location:  29.7698°N, 95.5164°W
Report Text: KMCJ 212215Z AUTO 00000KT OVC026 17/10 A2993 RMK AO1
Loading
Personal Weather Stations






























Interactive Weather Map New forecast layout! Learn more

10-Day Weather Forecast

Advertisements
Track Severe Weather on mobile